Terminal Aerodrome Forecast
Issued by NWS Charleston, WV

Current Version | Previous Version | Graphics & Text | Print | Product List | Glossary On
Versions: 1 2 3 4 5 6 7 8 9 10 11 12 13 14 15 16 17 18 19 20 21 22 23 24 25 26 27 28 29
000
FTUS41 KRLX 241200 AAA
TAFCRW
TAF AMD
KCRW 241257Z 2413/2512 VRB03KT 1 1/2SM BR BKN004
     FM241400 13003KT 6SM HZ SCT015
     FM241600 13005KT P6SM SCT025
     FM242100 11004KT P6SM SCT040
     FM250500 14003KT 5SM BR SKC
     FM250800 15003KT 3/4SM BR SCT002=

USA.gov is the U.S. government's official web portal to all federal, state and local government web resources and services.